createdAt,value
2023-01-20T00:01:43.171Z,99695.25
2023-01-20T00:04:11.279Z,99700.41
2023-01-20T00:06:39.305Z,99703.00
2023-01-20T00:09:07.352Z,99713.31
2023-01-20T00:11:35.371Z,99716.78
2023-01-20T00:14:03.389Z,99722.72
2023-01-20T00:16:34.814Z,99710.75
2023-01-20T00:19:03.282Z,99724.53
2023-01-20T00:21:31.250Z,99715.91
2023-01-20T00:23:58.961Z,99720.16
2023-01-20T00:26:27.032Z,99727.03
2023-01-20T00:28:55.916Z,99737.41
2023-01-20T00:31:27.167Z,99740.00
2023-01-20T00:33:57.916Z,99736.56
2023-01-20T00:36:27.802Z,99746.88
2023-01-20T00:38:55.449Z,99746.09
2023-01-20T00:41:23.918Z,99746.09
2023-01-20T00:43:51.629Z,99750.34
2023-01-20T00:46:19.724Z,99758.97
2023-01-20T00:48:47.417Z,99763.22
2023-01-20T00:51:15.740Z,99766.66
2023-01-20T00:53:43.354Z,99773.50
2023-01-20T00:56:11.316Z,99776.94
2023-01-20T00:58:38.992Z,99772.69
2023-01-20T01:01:07.189Z,99783.78
2023-01-20T01:03:34.874Z,99782.06
2023-01-20T01:06:07.358Z,99782.06
2023-01-20T01:08:35.662Z,99779.50
2023-01-20T01:11:04.227Z,99777.78
2023-01-20T01:13:32.972Z,99782.06
2023-01-20T01:16:01.357Z,99782.06
2023-01-20T01:18:29.142Z,99780.47
2023-01-20T01:20:57.429Z,99786.47
2023-01-20T01:23:25.125Z,99789.06
2023-01-20T01:25:53.044Z,99792.44
2023-01-20T01:28:20.716Z,99791.50
2023-01-20T01:30:48.699Z,99799.31
2023-01-20T01:33:16.402Z,99799.38
2023-01-20T01:35:44.357Z,99806.13
2023-01-20T01:38:11.968Z,99804.47
2023-01-20T01:40:39.881Z,99808.75
2023-01-20T01:43:25.954Z,99815.63
2023-01-20T01:45:54.632Z,99813.06
2023-01-20T01:48:31.591Z,99811.28
2023-01-20T01:51:05.568Z,99819.13
2023-01-20T01:53:39.924Z,99818.22
2023-01-20T01:56:08.710Z,99810.56
2023-01-20T01:58:41.600Z,99814.84
2023-01-20T02:01:10.099Z,99805.41
2023-01-20T02:04:07.289Z,99808.81
2023-01-20T02:06:38.431Z,99811.34
2023-01-20T02:09:06.975Z,99813.13
2023-01-20T02:11:48.605Z,99813.06
2023-01-20T02:14:19.086Z,99812.19
2023-01-20T02:17:21.021Z,99820.81
2023-01-20T02:20:10.021Z,99823.44
2023-01-20T02:23:08.866Z,99822.56
2023-01-20T02:25:54.426Z,99829.44
2023-01-20T02:28:30.999Z,99827.75
2023-01-20T02:31:52.498Z,99825.06
2023-01-20T02:34:38.101Z,99830.25
2023-01-20T02:37:21.364Z,99835.38
2023-01-20T02:40:19.927Z,99831.97
2023-01-20T02:43:16.044Z,99826.84
2023-01-20T02:45:57.618Z,99832.03
2023-01-20T02:48:55.878Z,99820.00
2023-01-20T02:51:31.826Z,99830.31
2023-01-20T02:54:05.994Z,99821.72
2023-01-20T02:56:36.649Z,99825.19
2023-01-20T02:59:11.066Z,99812.28
2023-01-20T03:01:58.043Z,99813.16
2023-01-20T03:04:30.862Z,99816.63
2023-01-20T03:07:00.390Z,99824.34
2023-01-20T03:09:35.749Z,99826.06
2023-01-20T03:12:11.778Z,99819.09
2023-01-20T03:14:39.687Z,99833.69
2023-01-20T03:17:07.670Z,99842.38
2023-01-20T03:19:35.991Z,99842.34
2023-01-20T03:22:03.995Z,99840.66
2023-01-20T03:24:34.424Z,99848.41
2023-01-20T03:27:02.320Z,99849.28
2023-01-20T03:29:30.705Z,99840.69
2023-01-20T03:32:01.449Z,99843.25
2023-01-20T03:34:33.297Z,99842.41
2023-01-20T03:37:02.581Z,99838.97
2023-01-20T03:39:31.498Z,99856.13
2023-01-20T03:42:07.329Z,99855.28
2023-01-20T03:44:38.050Z,99856.13
2023-01-20T03:47:17.891Z,99858.72
2023-01-20T03:50:06.616Z,99864.72
2023-01-20T03:52:49.733Z,99879.31
2023-01-20T03:55:26.680Z,99881.91
2023-01-20T03:58:05.041Z,99892.16
2023-01-20T04:00:36.593Z,99886.97
2023-01-20T04:03:11.444Z,99890.47
2023-01-20T04:05:40.253Z,99896.47
2023-01-20T04:08:11.466Z,99893.88
2023-01-20T04:10:42.828Z,99905.00
2023-01-20T04:13:10.963Z,99905.91
2023-01-20T04:15:42.204Z,99909.31
2023-01-20T04:18:17.749Z,99918.75
2023-01-20T04:20:50.674Z,99932.50
2023-01-20T04:23:27.648Z,99943.66
2023-01-20T04:25:55.415Z,99938.50
2023-01-20T04:28:23.341Z,99952.25
2023-01-20T04:30:51.247Z,99955.69
2023-01-20T04:33:19.415Z,99952.25
2023-01-20T04:35:47.130Z,99950.56
2023-01-20T04:38:15.193Z,99946.25
2023-01-20T04:40:42.934Z,99940.22
2023-01-20T04:43:12.138Z,99943.66
2023-01-20T04:45:42.067Z,99955.66
2023-01-20T04:48:10.366Z,99965.13
2023-01-20T04:50:41.790Z,99960.84
2023-01-20T04:53:16.822Z,99962.56
2023-01-20T04:55:44.536Z,99966.84
2023-01-20T04:58:12.634Z,99964.22
2023-01-20T05:00:41.424Z,99974.56
2023-01-20T05:03:10.444Z,99981.44
2023-01-20T05:05:38.527Z,99968.53
2023-01-20T05:08:06.589Z,99981.47
2023-01-20T05:10:34.818Z,99983.16
2023-01-20T05:13:03.053Z,99982.31
2023-01-20T05:15:30.674Z,99984.91
2023-01-20T05:17:58.546Z,99984.03
2023-01-20T05:20:26.298Z,99996.94
2023-01-20T05:22:54.247Z,99990.06
2023-01-20T05:25:22.018Z,99996.91
2023-01-20T05:27:50.012Z,99995.22
2023-01-20T05:30:17.784Z,100007.25
2023-01-20T05:32:49.063Z,100008.13
2023-01-20T05:35:17.314Z,100017.53
2023-01-20T05:37:45.443Z,100027.88
2023-01-20T05:40:13.357Z,100025.31
2023-01-20T05:42:41.330Z,100039.91
2023-01-20T05:45:09.409Z,100045.94
2023-01-20T05:47:37.508Z,100038.19
2023-01-20T05:50:05.952Z,100054.53
2023-01-20T05:52:33.879Z,100060.56
2023-01-20T05:55:01.588Z,100065.69
2023-01-20T05:57:29.529Z,100070.84
2023-01-20T05:59:57.249Z,100079.44
2023-01-20T06:02:25.180Z,100082.88
2023-01-20T06:04:53.074Z,100082.88
2023-01-20T06:07:21.128Z,100099.22
2023-01-20T06:09:48.859Z,100099.22
2023-01-20T06:12:16.871Z,100113.84
2023-01-20T06:14:44.546Z,100122.44
2023-01-20T06:17:12.507Z,100132.75
2023-01-20T06:19:40.246Z,100136.19
2023-01-20T06:22:12.915Z,100142.19
2023-01-20T06:24:41.086Z,100149.06
2023-01-20T06:27:09.423Z,100158.53
2023-01-20T06:29:37.213Z,100164.56
2023-01-20T06:32:05.537Z,100171.44
2023-01-20T06:34:33.420Z,100168.00
2023-01-20T06:37:02.319Z,100169.72
2023-01-20T06:39:30.146Z,100161.97
2023-01-20T06:41:59.434Z,100179.16
2023-01-20T06:44:27.846Z,100181.75
2023-01-20T06:46:58.497Z,100177.44
2023-01-20T06:49:26.564Z,100181.75
2023-01-20T06:51:54.721Z,100183.47
2023-01-20T06:54:22.558Z,100177.44
2023-01-20T06:56:50.603Z,100187.78
2023-01-20T06:59:33.685Z,100188.63
2023-01-20T07:02:01.766Z,100191.19
2023-01-20T07:04:29.487Z,100182.56
2023-01-20T07:06:57.356Z,100187.75
2023-01-20T07:09:25.193Z,100179.13
2023-01-20T07:11:53.270Z,100192.03
2023-01-20T07:14:21.115Z,100190.31
2023-01-20T07:16:49.260Z,100186.00
2023-01-20T07:19:17.028Z,100198.03
2023-01-20T07:21:45.223Z,100203.22
2023-01-20T07:24:13.047Z,100212.66
2023-01-20T07:26:41.013Z,100215.25
2023-01-20T07:29:08.641Z,100226.44
2023-01-20T07:34:10.769Z,100224.66
2023-01-20T07:36:38.681Z,100220.34
2023-01-20T07:39:06.378Z,100223.78
2023-01-20T07:41:34.469Z,100224.66
2023-01-20T07:44:02.825Z,100234.13
2023-01-20T07:46:30.899Z,100227.22
2023-01-20T07:48:58.532Z,100226.38
2023-01-20T07:51:26.479Z,100225.50
2023-01-20T07:53:54.248Z,100228.91
2023-01-20T07:56:24.602Z,100224.63
2023-01-20T07:58:53.779Z,100222.00
2023-01-20T08:01:23.244Z,100226.25
2023-01-20T08:03:51.595Z,100227.09
2023-01-20T08:06:22.892Z,100232.31
2023-01-20T08:08:51.324Z,100223.59
2023-01-20T08:11:20.866Z,100224.53
2023-01-20T08:13:48.897Z,100233.94
2023-01-20T08:16:18.103Z,100227.81
2023-01-20T08:18:46.560Z,100222.59
2023-01-20T08:21:23.974Z,100221.66
2023-01-20T08:23:52.404Z,100225.09
2023-01-20T08:26:20.587Z,100234.66
2023-01-20T08:28:48.620Z,100228.59
2023-01-20T08:31:19.516Z,100231.97
2023-01-20T08:33:48.210Z,100224.84
2023-01-20T08:36:19.632Z,100222.97
2023-01-20T08:38:48.365Z,100225.53
2023-01-20T08:41:23.365Z,100217.66
2023-01-20T08:43:51.299Z,100214.94
2023-01-20T08:46:21.235Z,100214.94
2023-01-20T08:48:50.173Z,100214.16
2023-01-20T08:51:28.274Z,100230.56
2023-01-20T08:53:56.418Z,100227.75
2023-01-20T08:56:24.368Z,100222.59
2023-01-20T08:58:52.261Z,100223.53
2023-01-20T09:01:22.865Z,100234.13
2023-01-20T09:04:04.438Z,100240.94
2023-01-20T09:06:42.814Z,100243.59
2023-01-20T09:09:11.133Z,100241.13
2023-01-20T09:11:40.104Z,100246.47
2023-01-20T09:14:07.774Z,100247.47
2023-01-20T09:16:35.831Z,100247.22
2023-01-20T09:19:03.630Z,100255.22
2023-01-20T09:21:31.606Z,100255.19
2023-01-20T09:23:59.877Z,100256.13
2023-01-20T09:26:35.734Z,100266.44
2023-01-20T09:29:09.712Z,100260.53
2023-01-20T09:31:40.758Z,100281.25
2023-01-20T09:34:08.601Z,100287.19
2023-01-20T09:36:36.576Z,100282.88
2023-01-20T09:39:22.833Z,100277.59
2023-01-20T09:42:20.234Z,100280.25
2023-01-20T09:44:53.951Z,100288.84
2023-01-20T09:47:31.384Z,100295.72
2023-01-20T09:50:56.351Z,100298.22
2023-01-20T09:53:42.835Z,100302.69
2023-01-20T09:56:18.378Z,100306.09
2023-01-20T09:58:58.203Z,100300.88
2023-01-20T10:01:46.192Z,100294.03
2023-01-20T10:04:41.825Z,100308.72
2023-01-20T10:07:14.901Z,100306.13
2023-01-20T10:10:00.667Z,100297.44
2023-01-20T10:12:36.583Z,100295.69
2023-01-20T10:15:26.564Z,100293.81
2023-01-20T10:18:09.991Z,100298.97
2023-01-20T10:20:50.413Z,100293.97
2023-01-20T10:23:29.488Z,100291.38
2023-01-20T10:26:19.564Z,100290.50
2023-01-20T10:29:05.346Z,100308.47
2023-01-20T10:31:43.170Z,100300.63
2023-01-20T10:34:18.735Z,100303.38
2023-01-20T10:36:58.750Z,100307.75
2023-01-20T10:39:35.020Z,100305.19
2023-01-20T10:42:10.258Z,100311.25
2023-01-20T10:44:38.015Z,100325.94
2023-01-20T10:47:14.955Z,100331.94
2023-01-20T10:50:00.295Z,100333.53
2023-01-20T10:52:40.049Z,100334.53
2023-01-20T10:55:25.517Z,100337.06
2023-01-20T10:58:09.322Z,100326.72
2023-01-20T11:00:37.209Z,100319.69
2023-01-20T11:03:06.373Z,100317.94
2023-01-20T11:05:38.234Z,100318.78
2023-01-20T11:08:18.302Z,100321.28
2023-01-20T11:10:49.390Z,100327.16
2023-01-20T11:13:17.664Z,100321.31
2023-01-20T11:15:48.374Z,100323.09
2023-01-20T11:18:16.294Z,100324.94
2023-01-20T11:21:05.453Z,100326.63
2023-01-20T11:23:39.219Z,100331.94
2023-01-20T11:26:37.503Z,100337.09
2023-01-20T11:29:11.505Z,100339.69
2023-01-20T11:31:45.556Z,100344.84
2023-01-20T11:34:48.962Z,100344.03
2023-01-20T11:37:17.945Z,100344.06
2023-01-20T11:40:01.779Z,100349.25
2023-01-20T11:42:47.255Z,100346.69
2023-01-20T11:45:37.507Z,100350.22
2023-01-20T11:48:15.850Z,100357.03
2023-01-20T11:50:57.532Z,100360.50
2023-01-20T11:53:31.788Z,100361.34
2023-01-20T11:56:21.070Z,100362.28
2023-01-20T11:59:01.901Z,100365.66
2023-01-20T12:01:49.464Z,100352.81
2023-01-20T12:04:56.586Z,100365.78
2023-01-20T12:07:46.450Z,100364.94
2023-01-20T12:10:24.671Z,100366.63
2023-01-20T12:13:10.997Z,100377.84
2023-01-20T12:15:53.110Z,100382.97
2023-01-20T12:18:37.524Z,100386.41
2023-01-20T12:21:09.219Z,100383.81
2023-01-20T12:24:00.230Z,100395.03
2023-01-20T12:26:29.361Z,100402.78
2023-01-20T12:29:12.414Z,100402.78
2023-01-20T12:31:40.459Z,100408.84
2023-01-20T12:34:17.457Z,100406.25
2023-01-20T12:37:03.739Z,100405.38
2023-01-20T12:39:59.787Z,100401.09
2023-01-20T12:42:27.375Z,100397.63
2023-01-20T12:45:16.132Z,100404.53
2023-01-20T12:48:21.689Z,100401.09
2023-01-20T12:50:55.578Z,100389.03
2023-01-20T12:54:02.532Z,100395.91
2023-01-20T12:56:50.966Z,100406.25
2023-01-20T12:59:48.972Z,100395.91
2023-01-20T13:02:18.594Z,100389.03
2023-01-20T13:05:05.437Z,100390.75
2023-01-20T13:07:48.746Z,100390.75
2023-01-20T13:10:50.276Z,100392.44
2023-01-20T13:13:57.224Z,100398.50
2023-01-20T13:16:45.730Z,100397.69
2023-01-20T13:19:34.244Z,100398.50
2023-01-20T13:22:18.895Z,100399.34
2023-01-20T13:24:52.431Z,100394.19
2023-01-20T13:27:35.755Z,100389.00
2023-01-20T13:30:08.303Z,100386.41
2023-01-20T13:32:37.295Z,100381.25
2023-01-20T13:35:42.357Z,100383.84
2023-01-20T13:38:30.645Z,100389.84
2023-01-20T13:41:03.317Z,100384.72
2023-01-20T13:43:47.885Z,100387.28
2023-01-20T13:46:16.981Z,100389.06
2023-01-20T13:49:12.011Z,100389.94
2023-01-20T13:51:43.988Z,100392.50
2023-01-20T13:54:29.042Z,100392.50
2023-01-20T13:57:23.351Z,100389.06
2023-01-20T13:59:51.636Z,100383.91
2023-01-20T14:02:21.223Z,100398.53
2023-01-20T14:04:49.576Z,100402.81
2023-01-20T14:07:30.012Z,100395.09
2023-01-20T14:09:59.714Z,100401.09
2023-01-20T14:12:28.524Z,100410.56
2023-01-20T14:14:56.249Z,100401.03
2023-01-20T14:17:25.663Z,100411.38
2023-01-20T14:19:55.692Z,100419.09
2023-01-20T14:22:32.497Z,100415.69
2023-01-20T14:25:01.945Z,100425.16
2023-01-20T14:27:34.120Z,100424.31
2023-01-20T14:30:26.323Z,100430.34
2023-01-20T14:32:54.643Z,100426.84
2023-01-20T14:35:27.505Z,100442.38
2023-01-20T14:37:55.805Z,100443.19
2023-01-20T14:40:34.879Z,100442.34
2023-01-20T14:43:22.644Z,100443.25
2023-01-20T14:45:51.907Z,100438.97
2023-01-20T14:48:33.492Z,100451.00
2023-01-20T14:51:04.285Z,100453.56
2023-01-20T14:53:32.713Z,100456.94
2023-01-20T14:56:09.683Z,100468.22
2023-01-20T14:58:49.444Z,100469.94
2023-01-20T15:01:24.057Z,100487.09
2023-01-20T15:03:59.731Z,100486.25
2023-01-20T15:06:27.699Z,100475.94
2023-01-20T15:09:06.463Z,100478.50
2023-01-20T15:11:36.470Z,100488.81
2023-01-20T15:14:08.784Z,100492.28
2023-01-20T15:16:36.503Z,100480.28
2023-01-20T15:19:16.908Z,100478.53
2023-01-20T15:21:59.068Z,100484.47
2023-01-20T15:24:37.642Z,100493.06
2023-01-20T15:27:24.849Z,100495.69
2023-01-20T15:30:17.242Z,100499.09
2023-01-20T15:32:46.657Z,100499.06
2023-01-20T15:35:16.717Z,100500.78
2023-01-20T15:37:44.918Z,100490.44
2023-01-20T15:40:20.820Z,100491.22
2023-01-20T15:42:50.382Z,100487.78
2023-01-20T15:45:19.307Z,100487.78
2023-01-20T15:47:47.563Z,100498.94
2023-01-20T15:50:23.153Z,100499.84
2023-01-20T15:52:51.513Z,100502.41
2023-01-20T15:55:20.155Z,100503.31
2023-01-20T15:57:51.825Z,100502.47
2023-01-20T16:00:22.698Z,100498.03
2023-01-20T16:02:50.681Z,100497.16
2023-01-20T16:05:18.913Z,100493.72
2023-01-20T16:07:47.756Z,100493.69
2023-01-20T16:10:18.421Z,100498.88
2023-01-20T16:12:47.925Z,100513.47
2023-01-20T16:15:18.116Z,100499.69
2023-01-20T16:17:46.081Z,100510.84
2023-01-20T16:20:26.122Z,100517.75
2023-01-20T16:22:54.449Z,100522.88
2023-01-20T16:25:22.697Z,100530.53
2023-01-20T16:27:50.854Z,100533.09
2023-01-20T16:30:21.870Z,100537.50
2023-01-20T16:32:50.076Z,100539.25
2023-01-20T16:35:20.393Z,100540.97
2023-01-20T16:37:48.545Z,100548.72
2023-01-20T16:40:20.328Z,100556.44
2023-01-20T16:42:48.426Z,100562.50
2023-01-20T16:45:23.559Z,100572.78
2023-01-20T16:47:51.734Z,100571.16
2023-01-20T16:50:20.347Z,100576.38
2023-01-20T16:52:48.637Z,100553.78
2023-01-20T16:55:16.747Z,100551.28
2023-01-20T16:57:44.530Z,100553.88
2023-01-20T17:00:13.110Z,100553.84
2023-01-20T17:02:40.800Z,100552.13
2023-01-20T17:05:09.733Z,100552.13
2023-01-20T17:07:37.471Z,100555.56
2023-01-20T17:10:05.827Z,100551.28
2023-01-20T17:12:33.799Z,100562.47
2023-01-20T17:15:01.756Z,100569.25
2023-01-20T17:17:29.436Z,100567.66
2023-01-20T17:19:57.470Z,100568.53
2023-01-20T17:22:25.414Z,100561.59
2023-01-20T17:24:53.590Z,100560.81
2023-01-20T17:27:21.293Z,100546.97
2023-01-20T17:29:49.388Z,100570.34
2023-01-20T17:32:18.146Z,100572.84
2023-01-20T17:34:47.358Z,100572.84
2023-01-20T17:37:15.050Z,100572.00
2023-01-20T17:39:42.985Z,100570.28
2023-01-20T17:42:10.680Z,100566.81
2023-01-20T17:44:38.858Z,100564.16
2023-01-20T17:47:07.710Z,100562.47
2023-01-20T17:49:35.691Z,100562.47
2023-01-20T17:52:03.471Z,100567.63
2023-01-20T17:54:31.753Z,100558.91
2023-01-20T17:56:59.388Z,100569.41
2023-01-20T17:59:27.465Z,100583.97
2023-01-20T18:01:55.426Z,100571.06
2023-01-20T18:04:23.435Z,100578.91
2023-01-20T18:06:51.212Z,100581.44
2023-01-20T18:09:19.564Z,100589.16
2023-01-20T18:11:47.520Z,100592.59
2023-01-20T18:14:15.459Z,100589.97
2023-01-20T18:16:43.505Z,100591.72
2023-01-20T18:19:14.007Z,100592.69
2023-01-20T18:21:43.847Z,100589.25
2023-01-20T18:24:13.373Z,100588.34
2023-01-20T18:26:44.992Z,100583.19
2023-01-20T18:29:16.457Z,100593.50
2023-01-20T18:31:46.552Z,100595.13
2023-01-20T18:34:17.831Z,100597.78
2023-01-20T18:36:46.908Z,100593.47
2023-01-20T18:39:23.357Z,100590.03
2023-01-20T18:41:51.944Z,100591.78
2023-01-20T18:44:21.205Z,100591.84
2023-01-20T18:46:49.035Z,100587.50
2023-01-20T18:49:17.793Z,100592.66
2023-01-20T18:51:45.548Z,100590.03
2023-01-20T18:54:17.530Z,100586.63
2023-01-20T18:56:45.329Z,100589.19
2023-01-20T18:59:14.032Z,100585.75
2023-01-20T19:01:42.197Z,100586.59
2023-01-20T19:04:12.122Z,100595.22
2023-01-20T19:06:42.279Z,100595.22
2023-01-20T19:09:11.451Z,100597.75
2023-01-20T19:11:41.010Z,100594.41
2023-01-20T19:14:13.128Z,100597.78
2023-01-20T19:16:49.384Z,100609.13
2023-01-20T19:19:18.981Z,100602.13
2023-01-20T19:21:50.249Z,100604.75
2023-01-20T19:24:20.645Z,100608.19
2023-01-20T19:26:48.579Z,100608.97
2023-01-20T19:29:17.541Z,100597.72
2023-01-20T19:31:45.494Z,100607.28
2023-01-20T19:34:13.677Z,100608.97
2023-01-20T19:36:41.498Z,100609.91
2023-01-20T19:39:09.566Z,100602.19
2023-01-20T19:41:38.918Z,100605.56
2023-01-20T19:44:07.889Z,100602.22
2023-01-20T19:46:37.555Z,100608.19
2023-01-20T19:49:05.783Z,100597.81
2023-01-20T19:51:33.674Z,100603.00
2023-01-20T19:54:02.514Z,100591.81
2023-01-20T19:56:35.436Z,100579.72
2023-01-20T19:59:06.003Z,100595.31
2023-01-20T20:01:35.805Z,100587.56
2023-01-20T20:04:13.047Z,100590.13
2023-01-20T20:06:46.202Z,100588.44
2023-01-20T20:09:26.028Z,100590.22
2023-01-20T20:11:54.311Z,100588.44
2023-01-20T20:14:23.232Z,100578.13
2023-01-20T20:16:51.069Z,100581.53
2023-01-20T20:19:20.431Z,100583.28
2023-01-20T20:21:48.551Z,100586.72
2023-01-20T20:24:18.035Z,100588.50
2023-01-20T20:26:46.779Z,100594.44
2023-01-20T20:29:16.676Z,100583.16
2023-01-20T20:31:44.852Z,100585.00
2023-01-20T20:34:15.954Z,100586.63
2023-01-20T20:36:44.119Z,100579.72
2023-01-20T20:39:16.949Z,100578.91
2023-01-20T20:41:45.381Z,100572.03
2023-01-20T20:44:13.378Z,100567.66
2023-01-20T20:46:41.503Z,100551.28
2023-01-20T20:49:15.239Z,100552.16
2023-01-20T20:51:43.302Z,100557.41
2023-01-20T20:54:14.001Z,100556.50
2023-01-20T20:56:41.742Z,100557.34
2023-01-20T20:59:10.613Z,100554.72
2023-01-20T21:01:38.663Z,100558.22
2023-01-20T21:04:06.779Z,100559.84
2023-01-20T21:06:34.879Z,100578.78
2023-01-20T21:09:03.065Z,100572.81
2023-01-20T21:11:31.732Z,100580.59
2023-01-20T21:13:59.833Z,100574.53
2023-01-20T21:16:28.217Z,100562.47
2023-01-20T21:18:58.314Z,100567.63
2023-01-20T21:21:29.080Z,100563.38
2023-01-20T21:23:59.199Z,100556.50
2023-01-20T21:26:30.289Z,100559.03
2023-01-20T21:29:02.062Z,100562.44
2023-01-20T21:31:31.546Z,100555.59
2023-01-20T21:34:00.467Z,100555.56
2023-01-20T21:36:30.293Z,100554.66
2023-01-20T21:38:59.452Z,100560.75
2023-01-20T21:41:27.112Z,100556.41
2023-01-20T21:44:14.353Z,100562.50
2023-01-20T21:46:42.225Z,100554.66
2023-01-20T21:49:29.058Z,100544.38
2023-01-20T21:52:16.038Z,100547.84
2023-01-20T21:54:45.409Z,100534.91
2023-01-20T21:57:14.697Z,100541.78
2023-01-20T21:59:43.121Z,100536.66
2023-01-20T22:02:13.558Z,100540.09
2023-01-20T22:04:42.302Z,100543.56
2023-01-20T22:07:10.573Z,100543.53
2023-01-20T22:09:39.300Z,100538.34
2023-01-20T22:12:07.535Z,100548.66
2023-01-20T22:14:35.592Z,100548.66
2023-01-20T22:17:03.734Z,100547.88
2023-01-20T22:19:31.966Z,100547.88
2023-01-20T22:22:01.468Z,100539.22
2023-01-20T22:24:29.879Z,100538.34
2023-01-20T22:26:58.266Z,100531.50
2023-01-20T22:29:26.339Z,100526.34
2023-01-20T22:31:55.017Z,100516.03
2023-01-20T22:34:23.356Z,100509.16
2023-01-20T22:36:51.011Z,100522.03
2023-01-20T22:39:19.076Z,100504.84
2023-01-20T22:41:46.800Z,100510.88
2023-01-20T22:44:14.995Z,100512.53
2023-01-20T22:46:42.659Z,100507.41
2023-01-20T22:49:11.278Z,100508.31
2023-01-20T22:51:38.957Z,100502.31
2023-01-20T22:54:10.628Z,100498.00
2023-01-20T22:56:39.195Z,100501.44
2023-01-20T22:59:07.279Z,100496.28
2023-01-20T23:01:36.076Z,100492.00
2023-01-20T23:04:06.180Z,100487.63
2023-01-20T23:06:35.803Z,100493.66
2023-01-20T23:09:07.382Z,100480.81
2023-01-20T23:11:36.478Z,100490.22
2023-01-20T23:14:04.919Z,100479.94
2023-01-20T23:16:32.751Z,100471.31
2023-01-20T23:19:01.193Z,100469.50
2023-01-20T23:21:29.115Z,100461.88
2023-01-20T23:23:57.273Z,100470.41
2023-01-20T23:26:27.351Z,100479.09
2023-01-20T23:28:56.225Z,100469.63
2023-01-20T23:31:25.887Z,100468.69
2023-01-20T23:33:54.731Z,100466.16
2023-01-20T23:36:25.539Z,100454.94
2023-01-20T23:38:55.006Z,100452.41
2023-01-20T23:41:23.229Z,100446.34
2023-01-20T23:43:51.305Z,100449.78
2023-01-20T23:46:19.096Z,100444.63
2023-01-20T23:48:47.846Z,100455.84
2023-01-20T23:51:16.095Z,100448.09
2023-01-20T23:53:44.247Z,100464.38
2023-01-20T23:56:21.678Z,100454.09
2023-01-20T23:58:50.200Z,100449.00
